| time (UTC) | temp C | wind direction | speed KPH | gust KPH | rain 1hr cm | rain 24hr cm | rain mn cm | humidity % | barometer mb |
| 20260906121512 | 15 | 20 | 3.2 | 6.4 | 0.00 | 0.08 | 0.00 | 87 | 1020.5 |
| 20260906120022 | 15 | 40 | 0.0 | 9.7 | 0.00 | 0.08 | 0.00 | 88 | 1020.3 |
| 20260906114541 | 15 | 74 | 1.6 | 6.4 | 0.00 | 0.08 | 0.00 | 89 | 1020.1 |
| 20260906113019 | 15 | 32 | 1.6 | 6.4 | 0.00 | 0.08 | 0.00 | 89 | 1020.0 |
| 20260906111529 | 15 | 30 | 1.6 | 4.8 | 0.00 | 0.08 | 0.00 | 89 | 1019.7 |
| 20260906110012 | 15 | 26 | 1.6 | 6.4 | 0.00 | 0.08 | 0.00 | 90 | 1019.7 |
| 20260906104521 | 15 | 84 | 1.6 | 11.3 | 0.00 | 0.08 | 0.00 | 90 | 1019.8 |
| 20260906103028 | 15 | 16 | 1.6 | 9.7 | 0.00 | 0.08 | 0.00 | 89 | 1019.6 |
| 20260906101514 | 15 | 49 | 1.6 | 9.7 | 0.00 | 0.08 | 0.00 | 89 | 1019.6 |
| 20260906100031 | 15 | 21 | 0.0 | 8.0 | 0.00 | 0.08 | 0.00 | 89 | 1019.6 |
| 20260906094537 | 15 | 54 | 1.6 | 8.0 | 0.00 | 0.08 | 0.00 | 89 | 1019.5 |
| 20260906093019 | 15 | 45 | 3.2 | 8.0 | 0.00 | 0.08 | 0.00 | 89 | 1019.5 |
| 20260906091534 | 15 | 102 | 1.6 | 8.0 | 0.00 | 0.08 | 0.00 | 89 | 1019.4 |
| 20260906090037 | 16 | 104 | 0.0 | 6.4 | 0.00 | 0.08 | 0.00 | 88 | 1019.4 |
| 20260906084529 | 16 | 36 | 3.2 | 8.0 | 0.00 | 0.08 | 0.00 | 88 | 1019.4 |
| 20260906083032 | 16 | 67 | 0.0 | 3.2 | 0.00 | 0.08 | 0.00 | 88 | 1019.2 |
| 20260906081513 | 16 | 77 | 0.0 | 4.8 | 0.00 | 0.08 | 0.00 | 87 | 1018.8 |
| 20260906080028 | 16 | 30 | 0.0 | 8.0 | 0.00 | 0.08 | 0.00 | 86 | 1018.7 |
| 20260906074533 | 16 | 123 | 0.0 | 4.8 | 0.00 | 0.08 | 0.00 | 86 | 1018.5 |
| 20260906073019 | 16 | 5 | 0.0 | 4.8 | 0.00 | 0.08 | 0.00 | 86 | 1018.6 |
| 20260906071533 | 16 | 52 | 0.0 | 6.4 | 0.00 | 0.08 | 0.00 | 86 | 1018.6 |
| 20260906070033 | 17 | 50 | 0.0 | 4.8 | 0.00 | 0.08 | 0.00 | 86 | 1018.6 |
| 20260906064528 | 17 | 271 | 0.0 | 6.4 | 0.00 | 0.08 | 0.00 | 85 | 1018.6 |
| 20260906063031 | 17 | 61 | 1.6 | 6.4 | 0.00 | 0.08 | 0.00 | 84 | 1018.7 |
| 20260906061516 | 17 | 350 | 0.0 | 6.4 | 0.00 | 0.08 | 0.00 | 83 | 1018.7 |
| 20260906060035 | 17 | 61 | 0.0 | 3.2 | 0.00 | 0.08 | 0.00 | 83 | 1018.6 |
| 20260906054531 | 17 | 360 | 0.0 | 4.8 | 0.00 | 0.08 | 0.00 | 84 | 1018.5 |
| 20260906053031 | 18 | 38 | 0.0 | 1.6 | 0.00 | 0.08 | 0.00 | 84 | 1018.4 |
| 20260906051530 | 18 | 22 | 0.0 | 6.4 | 0.00 | 0.08 | 0.00 | 82 | 1018.3 |
| 20260906050037 | 18 | 86 | 0.0 | 6.4 | 0.00 | 0.08 | 0.00 | 82 | 1018.3 |
| 20260906044525 | 18 | 5 | 0.0 | 9.7 | 0.00 | 0.08 | 0.00 | 83 | 1018.2 |
| 20260906043038 | 19 | 15 | 0.0 | 6.4 | 0.00 | 0.08 | 0.00 | 83 | 1018.2 |
| 20260906041536 | 19 | 272 | 0.0 | 4.8 | 0.00 | 0.08 | 0.00 | 83 | 1017.8 |
| 20260906040035 | 20 | 82 | 1.6 | 4.8 | 0.00 | 0.08 | 0.00 | 85 | 1017.7 |
| 20260906034514 | 20 | 85 | 0.0 | 3.2 | 0.00 | 0.08 | 0.08 | 85 | 1017.6 |
| 20260906033025 | 21 | 348 | 0.0 | 4.8 | 0.00 | 0.08 | 0.08 | 84 | 1017.5 |
| 20260906031503 | 21 | 348 | 0.0 | 4.8 | 0.00 | 0.08 | 0.08 | 86 | 1017.5 |
| 20260906030018 | 20 | 348 | 0.0 | 3.2 | 0.00 | 0.08 | 0.08 | 91 | 1017.4 |
| 20260906024532 | 20 | 348 | 0.0 | 0.0 | 0.00 | 0.08 | 0.08 | 92 | 1017.4 |
| 20260906023011 | 20 | 348 | 0.0 | 0.0 | 0.00 | 0.08 | 0.08 | 92 | 1017.3 |
| 20260906021527 | 20 | 348 | 0.0 | 0.0 | 0.00 | 0.08 | 0.08 | 92 | 1017.0 |
| 20260906020035 | 21 | 348 | 0.0 | 1.6 | 0.00 | 0.08 | 0.08 | 92 | 1016.9 |
| 20260906014523 | 20 | 348 | 0.0 | 0.0 | 0.00 | 0.08 | 0.08 | 92 | 1016.9 |
| 20260906013027 | 20 | 348 | 0.0 | 0.0 | 0.00 | 0.08 | 0.08 | 92 | 1016.8 |
| 20260906011510 | 21 | 348 | 0.0 | 0.0 | 0.00 | 0.08 | 0.08 | 92 | 1016.6 |
| 20260906010024 | 21 | 348 | 0.0 | 0.0 | 0.00 | 0.08 | 0.08 | 91 | 1016.3 |
| 20260906004530 | 21 | 348 | 0.0 | 1.6 | 0.00 | 0.08 | 0.08 | 90 | 1016.2 |
| 20260906003014 | 21 | 348 | 0.0 | 1.6 | 0.00 | 0.08 | 0.08 | 90 | 1016.3 |
| 20260906001524 | 21 | 348 | 0.0 | 4.8 | 0.00 | 0.08 | 0.08 | 89 | 1016.1 |
| 20260906000030 | 22 | 360 | 8.0 | 19.3 | 0.00 | 0.08 | 0.08 | 88 | 1016.3 |
| 20260905234517 | 22 | 351 | 16.1 | 27.4 | 0.00 | 0.08 | 0.08 | 86 | 1016.4 |
| 20260905233032 | 22 | 342 | 17.7 | 25.7 | 0.00 | 0.08 | 0.08 | 86 | 1016.5 |
| 20260905231508 | 22 | 346 | 17.7 | 25.7 | 0.00 | 0.08 | 0.08 | 85 | 1016.5 |
| 20260905230022 | 22 | 352 | 17.7 | 29.0 | 0.00 | 0.08 | 0.08 | 85 | 1016.1 |
| 20260905224528 | 22 | 17 | 16.1 | 25.7 | 0.00 | 0.08 | 0.08 | 86 | 1016.4 |
| 20260905223013 | 23 | 351 | 16.1 | 25.7 | 0.00 | 0.08 | 0.08 | 83 | 1016.3 |
| 20260905221528 | 25 | 20 | 4.8 | 11.3 | 0.00 | 0.08 | 0.08 | 73 | 1016.1 |
| 20260905220033 | 25 | 38 | 3.2 | 11.3 | 0.00 | 0.08 | 0.08 | 72 | 1015.8 |
| 20260905214519 | 25 | 24 | 3.2 | 11.3 | 0.00 | 0.08 | 0.08 | 74 | 1015.7 |
| 20260905213028 | 25 | 13 | 3.2 | 16.1 | 0.00 | 0.08 | 0.08 | 75 | 1015.7 |
| 20260905211532 | 24 | 51 | 3.2 | 16.1 | 0.00 | 0.08 | 0.08 | 76 | 1015.8 |
| 20260905210022 | 25 | 26 | 6.4 | 19.3 | 0.00 | 0.08 | 0.08 | 77 | 1015.8 |
| 20260905204531 | 24 | 64 | 4.8 | 17.7 | 0.00 | 0.08 | 0.08 | 78 | 1015.7 |
| 20260905203014 | 23 | 55 | 3.2 | 17.7 | 0.00 | 0.08 | 0.08 | 80 | 1015.6 |
| 20260905201527 | 23 | 329 | 4.8 | 16.1 | 0.00 | 0.08 | 0.08 | 81 | 1015.7 |
| 20260905200032 | 23 | 351 | 0.0 | 17.7 | 0.00 | 0.08 | 0.08 | 85 | 1015.9 |
| 20260905194521 | 22 | 65 | 1.6 | 12.9 | 0.03 | 0.08 | 0.08 | 87 | 1016.0 |
| 20260905193034 | 22 | 88 | 1.6 | 12.9 | 0.03 | 0.08 | 0.08 | 88 | 1016.1 |
| 20260905191533 | 21 | 19 | 0.0 | 8.0 | 0.05 | 0.08 | 0.08 | 91 | 1016.2 |
| 20260905190030 | 21 | 59 | 4.8 | 9.7 | 0.08 | 0.08 | 0.08 | 92 | 1016.2 |
| 20260905184535 | 20 | 33 | 3.2 | 16.1 | 0.05 | 0.05 | 0.05 | 93 | 1016.3 |
| 20260905183007 | 20 | 9 | 1.6 | 16.1 | 0.05 | 0.05 | 0.05 | 93 | 1016.6 |
| 20260905181502 | 20 | 51 | 4.8 | 11.3 | 0.03 | 0.03 | 0.03 | 92 | 1016.7 |
| 20260905180000 | 20 | 360 | 3.2 | 6.4 | 0.00 | 0.00 | 0.00 | 92 | 1016.5 |
| 20260905174505 | 20 | 360 | 0.0 | 12.9 | 0.00 | 0.00 | 0.00 | 91 | 1016.6 |
| 20260905172959 | 20 | 82 | 1.6 | 14.5 | 0.00 | 0.00 | 0.00 | 90 | 1016.6 |
| 20260905171502 | 20 | 51 | 1.6 | 17.7 | 0.00 | 0.00 | 0.00 | 89 | 1016.5 |
| 20260905170008 | 20 | 11 | 1.6 | 14.5 | 0.00 | 0.00 | 0.00 | 88 | 1016.5 |
| 20260905164502 | 20 | 63 | 3.2 | 14.5 | 0.00 | 0.00 | 0.00 | 87 | 1016.4 |
| 20260905163003 | 20 | 88 | 1.6 | 14.5 | 0.00 | 0.00 | 0.00 | 87 | 1016.4 |
| 20260905161500 | 20 | 19 | 3.2 | 11.3 | 0.00 | 0.00 | 0.00 | 87 | 1016.2 |
| 20260905160001 | 21 | 50 | 4.8 | 14.5 | 0.00 | 0.00 | 0.00 | 85 | 1016.0 |
| 20260905154940 | 21 | 43 | 6.4 | 20.9 | 0.00 | 0.03 | 0.00 | 82 | 1015.9 |
| 20260905154931 | 21 | 67 | 6.4 | 17.7 | 0.00 | 0.08 | 0.00 | 82 | 1015.8 |
| 20260905154926 | 22 | 192 | 4.8 | 11.3 | 0.00 | 2.95 | 2.84 | 90 | 1014.7 |